Meteo

Meteo


Dettagli e Storico

Webcam

Webcam in aeroporto – Aggiornata ogni minuto

Osservatorio Meteorologico Cocomaro di Cona – Ferrara

NOAA IMAGE

NOAA

Powerd by MEEO S.r.l.

METAR

Aviation Digital Data Service (ADDS)

Output produced by METARs form (1346 UTC 22 October 2018)
found at http://www.aviationweather.gov/metar/data/
 

METAR text: LIPF 221255Z /////KT 9999 FEW030 18/08 Q1021 RMK FEW VIS
MIN 9999
Conditions at: LIPF
(FERRARA (AUT) , IT) observed 1255 UTC 22 October 2018
Temperature: 18.0°C (64°F)
Dewpoint: 8.0°C (46°F) [RH = 52%]
Pressure (altimeter): 30.15 inches Hg (1021.0 mb)
Winds: missing
Visibility: 6 or more miles (10+ km)
Ceiling: at least 12,000 feet AGL
Clouds: few clouds at 3000 feet AGL
Weather: no significant weather observed at this time

METAR text: LIPE 221320Z VRB05KT 9999 SCT048 17/06 Q1020
Conditions at: LIPE
(BOLOGNA/BORGO (A, IT) observed 1320 UTC 22 October 2018
Temperature: 17.0°C (63°F)
Dewpoint: 6.0°C (43°F) [RH = 48%]
Pressure (altimeter): 30.12 inches Hg (1020.0 mb)
Winds: variable direction winds at 6 MPH (5 knots; 2.6 m/s)
Visibility: 6 or more miles (10+ km)
Ceiling: at least 12,000 feet AGL
Clouds: scattered clouds at 4800 feet AGL
Weather: no significant weather observed at this time

Forecast for: LIPE (BOLOGNA/BORGO (A, IT)
Text: TAF LIPE 221100Z 2212/2312 09012KT 9999 FEW030
Forecast period: 1200 UTC 22 October 2018 to 1200 UTC 23 October 2018
Forecast type: FROM: standard forecast or significant change
Winds: from the E (90 degrees) at 14 MPH (12 knots; 6.2 m/s)
Visibility: 6 or more miles 10+ km)
Ceiling: at least 12,000 feet AGL
Clouds: few clouds at 3000 feet AGL
Weather: no significant weather forecast for this period

METAR text: LIPX 221320Z 14003KT 050V200 CAVOK 19/02 Q1021
Conditions at: LIPX
(VILLAFRANCA(CV/M, IT) observed 1320 UTC 22 October 2018
Temperature: 19.0°C (66°F)
Dewpoint: 2.0°C (36°F) [RH = 32%]
Pressure (altimeter): 30.15 inches Hg (1021.0 mb)
Winds: from the SE (140 degrees) at 3 MPH (3 knots; 1.5 m/s)
Visibility: 6 or more miles (10+ km)
Ceiling: ceiling and visibility are OK
Clouds: unknown
Weather: no significant weather observed at this time

Forecast for: LIPX (VILLAFRANCA(CV/M, IT)
Text: TAF LIPX 221100Z 2212/2221 VRB05KT CAVOK
Forecast period: 1200 to 2100 UTC 22 October 2018
Forecast type: FROM: standard forecast or significant change
Winds: variable direction winds at 6 MPH (5 knots; 2.6 m/s)
Visibility: 6 or more miles 10+ km)
Ceiling: unknown
Clouds: missing
Weather: NSW  (no significant weather)

METAR text: LIPZ 221320Z 07010KT CAVOK 18/08 Q1020 NOSIG
Conditions at: LIPZ
(VENEZIA/TESSERA , IT) observed 1320 UTC 22 October 2018
Temperature: 18.0°C (64°F)
Dewpoint: 8.0°C (46°F) [RH = 52%]
Pressure (altimeter): 30.12 inches Hg (1020.0 mb)
Winds: from the ENE (70 degrees) at 12 MPH (10 knots; 5.1 m/s)
Visibility: 6 or more miles (10+ km)
Ceiling: ceiling and visibility are OK
Clouds: unknown
Weather: no significant weather observed at this time

Forecast for: LIPZ (VENEZIA/TESSERA , IT)
Text: TAF LIPZ 221100Z 2212/2318 04015KT 9999 SCT030
Forecast period: 1200 UTC 22 October 2018 to 1800 UTC 23 October 2018
Forecast type: FROM: standard forecast or significant change
Winds: from the NE (40 degrees) at 17 MPH (15 knots; 7.7 m/s)
Visibility: 6 or more miles 10+ km)
Ceiling: at least 12,000 feet AGL
Clouds: scattered clouds at 3000 feet AGL
Weather: no significant weather forecast for this period